Terminal Aerodrome Forecast
Issued by NWS Charleston, WV

Current Version | Previous Version | Text Only | Print | Product List | Glossary Off
Versions: 1 2 3 4 5 6 7 8 9 10 11 12 13 14 15 16 17 18 19 20 21 22 23 24

000
FTUS41 KRLX 160611 CCA
TAFEKN
TAF COR
KEKN 160611Z 1606/1706 00000KT 6SM -RA BKN006 OVC015
     FM160700 00000KT 4SM -RA BR OVC015
     FM161000 00000KT 4SM -RA BR OVC025
     FM161700 VRB03KT P6SM OVC025
     FM170400 VRB02KT P6SM -SHRA BKN035=

USA.gov is the U.S. government's official web portal to all federal, state and local government web resources and services.